Terminal Aerodrome Forecast
Issued by NWS Wakefield, VA

Home | Current Version | Previous Version | Text Only | Print | Product List | Glossary On
Versions: 1 2 3 4 5 6 7 8 9 10 11 12 13 14 15 16 17 18 19 20
708
FTUS41 KAKQ 240206 AAA
TAFORF
TAF AMD
KORF 240206Z 2402/2424 07013KT P6SM OVC050
      TEMPO 2402/2406 6SM -RA BKN015 OVC050
     FM240600 06012G19KT 6SM -RA OVC015
     FM240800 06014G21KT 4SM -RA OVC008
     FM241800 06015G23KT 3SM -RA OVC010=

USA.gov is the U.S. government's official web portal to all federal, state and local government web resources and services.